Time;durP1;ratioP1;P1;durP2;ratioP2;P2;SDS_P1;SDS_P2;PMS_P1;PMS_P2;Temp;Humidity;BMP_temperature;BMP_pressure;BME280_temperature;BME280_humidity;BME280_pressure;Samples;Min_cycle;Max_cycle;Signal;HPM_P1;HPM_P2
2021/05/08 00:01:47;;;;;;;5.40;4.07;;;1.60;99.90;;;;;;5069942;28;20457;-75
2021/05/08 00:04:12;;;;;;;8.53;4.67;;;1.60;99.90;;;;;;5070842;28;20028;-75
2021/05/08 00:06:38;;;;;;;6.47;4.00;;;1.60;99.90;;;;;;5071841;28;20039;-75
2021/05/08 00:09:07;;;;;;;7.10;4.47;;;1.50;99.90;;;;;;5072286;28;20021;-74
2021/05/08 00:11:36;;;;;;;8.03;4.33;;;1.50;99.90;;;;;;5071963;28;20020;-75
2021/05/08 00:14:02;;;;;;;7.07;4.10;;;1.50;99.90;;;;;;5072160;28;20028;-75
2021/05/08 00:16:27;;;;;;;7.67;4.57;;;1.50;99.90;;;;;;5070904;28;20028;-75
2021/05/08 00:18:53;;;;;;;9.03;4.73;;;1.50;99.90;;;;;;5073446;28;20130;-75
2021/05/08 00:21:19;;;;;;;7.23;4.90;;;1.40;99.90;;;;;;5069034;28;20043;-75
2021/05/08 00:23:44;;;;;;;5.77;4.70;;;1.40;99.90;;;;;;5083609;28;20433;-75
2021/05/08 00:26:10;;;;;;;7.00;4.23;;;1.40;99.90;;;;;;5089345;28;20395;-75
2021/05/08 00:28:36;;;;;;;6.40;4.70;;;1.40;99.90;;;;;;5086384;28;20040;-75
2021/05/08 00:31:01;;;;;;;6.00;4.67;;;1.40;99.90;;;;;;5081461;28;20056;-75
2021/05/08 00:33:27;;;;;;;5.87;3.93;;;1.30;99.90;;;;;;5060494;28;20044;-75
2021/05/08 00:35:52;;;;;;;7.37;4.87;;;1.30;99.90;;;;;;5085772;28;20025;-75
2021/05/08 00:38:18;;;;;;;8.37;4.67;;;1.30;99.90;;;;;;5073723;28;20020;-75
2021/05/08 00:40:43;;;;;;;6.10;4.67;;;1.20;99.90;;;;;;5088711;28;20024;-76
2021/05/08 00:43:09;;;;;;;7.67;5.00;;;1.20;99.90;;;;;;5082617;28;20110;-75
2021/05/08 00:45:35;;;;;;;8.60;4.90;;;1.20;99.90;;;;;;5089132;28;20111;-76
2021/05/08 00:48:09;;;;;;;6.30;4.40;;;1.20;99.90;;;;;;5091696;28;20443;-75
2021/05/08 00:50:35;;;;;;;6.50;4.68;;;1.20;99.90;;;;;;5091550;28;20028;-75
2021/05/08 00:53:02;;;;;;;5.63;4.33;;;1.20;99.90;;;;;;5090493;28;20020;-75
2021/05/08 00:55:28;;;;;;;5.17;4.00;;;1.10;99.90;;;;;;5083697;28;20023;-75
2021/05/08 00:57:54;;;;;;;7.27;4.70;;;1.20;99.90;;;;;;5089970;28;20016;-75
2021/05/08 01:00:20;;;;;;;8.77;4.90;;;1.10;99.90;;;;;;5086486;28;20055;-75
2021/05/08 01:02:46;;;;;;;6.40;4.50;;;1.10;99.90;;;;;;5081450;28;20478;-75
2021/05/08 01:05:13;;;;;;;7.67;4.43;;;1.10;99.90;;;;;;5091527;28;20039;-75
2021/05/08 01:07:39;;;;;;;6.80;4.53;;;1.10;99.90;;;;;;5078980;28;20035;-75
2021/05/08 01:10:07;;;;;;;6.60;4.63;;;1.10;99.90;;;;;;5063039;28;20047;-75
2021/05/08 01:12:33;;;;;;;8.83;4.63;;;1.10;99.90;;;;;;5073151;28;20107;-75
2021/05/08 01:14:59;;;;;;;10.00;4.60;;;1.10;99.90;;;;;;5091062;28;20469;-75
2021/05/08 01:17:26;;;;;;;5.90;4.40;;;1.20;99.90;;;;;;5081179;28;20021;-75
2021/05/08 01:19:52;;;;;;;7.47;4.57;;;1.20;99.90;;;;;;5087588;28;20059;-75
2021/05/08 01:22:17;;;;;;;7.37;5.00;;;1.30;99.90;;;;;;5091133;28;20086;-75
2021/05/08 01:24:43;;;;;;;7.50;4.27;;;1.30;99.90;;;;;;5080142;28;20040;-75
2021/05/08 01:27:08;;;;;;;6.27;4.40;;;1.30;99.90;;;;;;5075231;28;20052;-76
2021/05/08 01:29:34;;;;;;;5.53;4.53;;;1.30;99.90;;;;;;5083678;28;20032;-75
2021/05/08 01:31:59;;;;;;;5.13;4.43;;;1.30;99.90;;;;;;5090692;28;20132;-75
2021/05/08 01:34:25;;;;;;;7.77;5.10;;;1.30;99.90;;;;;;5091013;28;20028;-75
2021/05/08 01:36:50;;;;;;;8.90;5.27;;;1.30;99.90;;;;;;5090654;28;20047;-75
2021/05/08 01:39:16;;;;;;;5.73;5.07;;;1.30;99.90;;;;;;5087824;28;20107;-75
2021/05/08 01:41:43;;;;;;;6.77;4.57;;;1.30;99.90;;;;;;5077248;28;20028;-75
2021/05/08 01:44:09;;;;;;;5.60;4.40;;;1.30;99.90;;;;;;5089866;28;20024;-75
2021/05/08 01:46:36;;;;;;;5.07;4.30;;;1.30;99.90;;;;;;5080360;28;20024;-75
2021/05/08 01:49:02;;;;;;;6.63;5.00;;;1.30;99.90;;;;;;5078285;28;20028;-75
2021/05/08 01:51:28;;;;;;;7.87;4.60;;;1.30;99.90;;;;;;5090495;28;20048;-75
2021/05/08 01:53:54;;;;;;;7.60;4.63;;;1.40;99.90;;;;;;5087368;28;20079;-75
2021/05/08 01:56:19;;;;;;;21.37;10.10;;;1.40;99.90;;;;;;5090592;28;20035;-75
2021/05/08 01:58:45;;;;;;;35.10;17.83;;;1.40;99.90;;;;;;5081802;28;20060;-75
2021/05/08 02:01:10;;;;;;;43.00;21.97;;;1.40;99.90;;;;;;5089723;28;20059;-75
2021/05/08 02:03:36;;;;;;;22.07;12.00;;;1.40;99.90;;;;;;5075978;28;20032;-75
2021/05/08 02:06:02;;;;;;;12.70;7.30;;;1.40;99.90;;;;;;5087747;28;20023;-75
2021/05/08 02:08:28;;;;;;;16.33;9.30;;;1.40;99.90;;;;;;5080032;28;20028;-75
2021/05/08 02:10:53;;;;;;;30.30;15.33;;;1.40;99.90;;;;;;5089809;28;20032;-75
2021/05/08 02:13:19;;;;;;;12.83;8.17;;;1.40;99.90;;;;;;5085083;28;20039;-75
2021/05/08 02:15:44;;;;;;;12.40;7.43;;;1.30;99.90;;;;;;5083838;28;20020;-75
2021/05/08 02:18:10;;;;;;;11.33;7.10;;;1.30;99.90;;;;;;5079325;28;20453;-75
2021/05/08 02:20:39;;;;;;;9.37;6.13;;;1.30;99.90;;;;;;5080081;28;20032;-75
2021/05/08 02:23:07;;;;;;;12.07;6.80;;;1.30;99.90;;;;;;5087937;28;20024;-75
2021/05/08 02:25:33;;;;;;;11.27;6.97;;;1.30;99.90;;;;;;5088896;28;20047;-75
2021/05/08 02:27:59;;;;;;;8.77;6.10;;;1.30;99.90;;;;;;5079294;28;20060;-75
2021/05/08 02:30:33;;;;;;;7.83;5.50;;;1.30;99.90;;;;;;5089800;28;20063;-75
2021/05/08 02:33:00;;;;;;;8.67;5.60;;;1.40;99.90;;;;;;5089825;28;20229;-75
2021/05/08 02:35:26;;;;;;;8.57;5.50;;;1.40;99.90;;;;;;5089637;28;20414;-75
2021/05/08 02:37:53;;;;;;;7.57;5.93;;;1.40;99.90;;;;;;5084389;28;20353;-75
2021/05/08 02:40:22;;;;;;;15.63;6.87;;;1.40;99.90;;;;;;5085479;28;20414;-75
2021/05/08 02:42:48;;;;;;;9.33;6.27;;;1.40;99.90;;;;;;5085921;28;20469;-75
2021/05/08 02:45:15;;;;;;;8.93;5.87;;;1.40;99.90;;;;;;5084109;28;20032;-76
2021/05/08 02:47:44;;;;;;;8.23;5.97;;;1.40;99.90;;;;;;5087741;28;20036;-76
2021/05/08 02:50:12;;;;;;;8.77;5.53;;;1.40;99.90;;;;;;5089442;28;20107;-75
2021/05/08 02:52:38;;;;;;;12.93;5.53;;;1.40;99.90;;;;;;5089375;28;20110;-75
2021/05/08 02:55:05;;;;;;;10.83;5.67;;;1.30;99.90;;;;;;5082068;28;20111;-75
2021/05/08 02:57:31;;;;;;;10.37;6.00;;;1.30;99.90;;;;;;5076429;28;20032;-75
2021/05/08 02:59:56;;;;;;;9.47;5.87;;;1.30;99.90;;;;;;5076347;28;20040;-75
2021/05/08 03:02:22;;;;;;;8.13;5.47;;;1.20;99.90;;;;;;5082056;28;20043;-76
2021/05/08 03:04:47;;;;;;;8.53;6.00;;;1.20;99.90;;;;;;5089580;28;20113;-75
2021/05/08 03:07:13;;;;;;;12.33;6.87;;;1.20;99.90;;;;;;5080232;28;20495;-75
2021/05/08 03:09:39;;;;;;;7.33;5.73;;;1.10;99.90;;;;;;5086107;28;20032;-75
2021/05/08 03:12:05;;;;;;;7.00;5.57;;;1.10;99.90;;;;;;5080410;28;20032;-75
2021/05/08 03:14:31;;;;;;;9.27;5.63;;;1.10;99.90;;;;;;5089423;28;20028;-76
2021/05/08 03:16:57;;;;;;;9.07;5.47;;;1.00;99.90;;;;;;5083210;28;20021;-75
2021/05/08 03:19:23;;;;;;;8.40;5.07;;;1.00;99.90;;;;;;5067172;28;20726;-75
2021/05/08 03:21:49;;;;;;;10.60;5.23;;;1.00;99.90;;;;;;5076981;28;20047;-75
2021/05/08 03:24:15;;;;;;;9.20;5.43;;;1.00;99.90;;;;;;5089387;28;20434;-75
2021/05/08 03:26:40;;;;;;;7.73;5.40;;;0.90;99.90;;;;;;5079538;28;20033;-75
2021/05/08 03:29:06;;;;;;;5.97;4.80;;;0.90;99.90;;;;;;5067571;28;20134;-75
2021/05/08 03:31:32;;;;;;;10.83;5.90;;;0.90;99.90;;;;;;5062963;28;20033;-75
2021/05/08 03:33:58;;;;;;;7.77;5.63;;;0.90;99.90;;;;;;5059120;28;20041;-75
2021/05/08 03:36:24;;;;;;;11.70;8.37;;;0.90;99.90;;;;;;5069290;28;20035;-75
2021/05/08 03:38:50;;;;;;;10.97;6.20;;;0.90;99.90;;;;;;5058717;28;20028;-75
2021/05/08 03:41:15;;;;;;;8.23;5.70;;;0.80;99.90;;;;;;5061948;28;20115;-75
2021/05/08 03:43:41;;;;;;;11.77;5.27;;;0.80;99.90;;;;;;5072507;28;20033;-75
2021/05/08 03:46:06;;;;;;;8.33;5.57;;;0.80;99.90;;;;;;5072580;28;20033;-75
2021/05/08 03:48:33;;;;;;;7.60;5.40;;;0.80;99.90;;;;;;5071030;28;20066;-75
2021/05/08 03:50:58;;;;;;;8.33;4.87;;;0.90;99.90;;;;;;5062118;28;20380;-75
2021/05/08 03:53:24;;;;;;;8.77;5.53;;;0.90;99.90;;;;;;5052306;28;20174;-75
2021/05/08 03:55:51;;;;;;;8.80;5.50;;;0.90;99.90;;;;;;5059885;28;20024;-75
2021/05/08 03:58:28;;;;;;;10.73;5.73;;;0.90;99.90;;;;;;5072621;28;20028;-75
2021/05/08 04:00:54;;;;;;;10.30;5.33;;;1.00;99.90;;;;;;5066636;28;20692;-75
2021/05/08 04:03:20;;;;;;;8.17;4.63;;;1.00;99.90;;;;;;5069481;28;20107;-75
2021/05/08 04:05:46;;;;;;;6.50;4.43;;;1.00;99.90;;;;;;5070660;28;20064;-75
2021/05/08 04:08:13;;;;;;;7.53;5.07;;;1.00;99.90;;;;;;5057899;28;20584;-75
2021/05/08 04:10:38;;;;;;;7.50;4.83;;;1.00;99.90;;;;;;5059793;28;20057;-75
2021/05/08 04:13:04;;;;;;;9.10;5.30;;;1.10;99.90;;;;;;5060944;28;20036;-76
2021/05/08 04:15:29;;;;;;;6.70;4.70;;;1.10;99.90;;;;;;5048370;28;20030;-76
2021/05/08 04:17:55;;;;;;;9.83;4.90;;;1.10;99.90;;;;;;5048554;28;20028;-73
2021/05/08 04:20:20;;;;;;;7.47;5.03;;;1.20;99.90;;;;;;5055959;28;20824;-76
2021/05/08 04:22:46;;;;;;;5.97;4.50;;;1.20;99.90;;;;;;5063346;28;20056;-75
2021/05/08 04:25:12;;;;;;;7.17;4.87;;;1.20;99.90;;;;;;5059264;28;20109;-78
2021/05/08 04:27:38;;;;;;;6.80;4.60;;;1.20;99.90;;;;;;5067642;28;20101;-78
2021/05/08 04:30:05;;;;;;;5.40;4.40;;;1.30;99.90;;;;;;5074598;28;20410;-78
2021/05/08 04:32:30;;;;;;;6.53;4.50;;;1.30;99.90;;;;;;5071549;28;20028;-79
2021/05/08 04:34:56;;;;;;;8.23;5.37;;;1.30;99.90;;;;;;5073695;28;20465;-79
2021/05/08 04:37:21;;;;;;;7.20;5.10;;;1.40;99.90;;;;;;5057349;28;20488;-79
2021/05/08 04:39:47;;;;;;;9.03;5.00;;;1.40;99.90;;;;;;5072314;28;20024;-78
2021/05/08 04:42:12;;;;;;;7.60;5.00;;;1.50;99.90;;;;;;5074021;28;20027;-75
2021/05/08 04:44:38;;;;;;;7.30;5.03;;;1.50;99.90;;;;;;5073485;28;20112;-76
2021/05/08 04:47:05;;;;;;;8.63;4.90;;;1.60;99.90;;;;;;5082819;28;20056;-81
2021/05/08 04:49:30;;;;;;;8.70;5.03;;;1.70;99.90;;;;;;5085775;28;20081;-76
2021/05/08 04:51:56;;;;;;;8.27;4.57;;;1.80;99.90;;;;;;5076507;28;20206;-76
2021/05/08 04:54:22;;;;;;;7.53;4.43;;;2.00;99.90;;;;;;5085451;28;20024;-76
2021/05/08 04:56:49;;;;;;;7.63;4.43;;;2.10;99.90;;;;;;5083887;28;20039;-88
2021/05/08 04:59:15;;;;;;;8.57;5.50;;;2.20;99.90;;;;;;5084048;28;20028;-75
2021/05/08 05:01:41;;;;;;;6.43;4.40;;;2.30;99.90;;;;;;5074716;28;20017;-75
2021/05/08 05:04:07;;;;;;;9.90;4.50;;;2.40;99.90;;;;;;5083023;28;20029;-76
2021/05/08 05:06:32;;;;;;;6.27;4.57;;;2.40;99.90;;;;;;5084554;28;20028;-73
2021/05/08 05:08:58;;;;;;;6.47;4.60;;;2.50;99.90;;;;;;5081195;28;20093;-83
2021/05/08 05:11:24;;;;;;;10.73;4.90;;;2.60;99.90;;;;;;5082563;28;20409;-83
2021/05/08 05:13:50;;;;;;;7.37;4.57;;;2.60;99.90;;;;;;5083058;28;20061;-83
2021/05/08 05:16:16;;;;;;;7.10;4.53;;;2.70;99.90;;;;;;5062423;28;20029;-83
2021/05/08 05:18:42;;;;;;;9.97;4.40;;;2.80;99.90;;;;;;5082863;28;20044;-83
2021/05/08 05:21:09;;;;;;;8.60;5.37;;;2.90;99.90;;;;;;5084451;28;20025;-83
2021/05/08 05:23:35;;;;;;;7.20;5.10;;;3.00;99.90;;;;;;5080805;28;20028;-83
2021/05/08 05:26:00;;;;;;;8.03;4.70;;;3.10;99.90;;;;;;5081950;28;20063;-74
2021/05/08 05:28:28;;;;;;;7.30;4.50;;;3.30;99.90;;;;;;5084307;28;20102;-79
2021/05/08 05:30:54;;;;;;;7.67;4.30;;;3.40;99.90;;;;;;5086082;28;20388;-78
2021/05/08 05:33:21;;;;;;;7.07;4.67;;;3.60;99.90;;;;;;5091404;28;20807;-78
2021/05/08 05:35:48;;;;;;;6.30;4.80;;;3.80;99.90;;;;;;5090146;28;20108;-78
2021/05/08 05:38:13;;;;;;;6.33;4.40;;;4.00;99.90;;;;;;5076120;28;20028;-78
2021/05/08 05:40:39;;;;;;;5.90;4.93;;;4.20;99.90;;;;;;5074922;28;20028;-85
2021/05/08 05:43:04;;;;;;;12.17;6.43;;;4.30;99.90;;;;;;5065404;28;20090;-84
2021/05/08 05:45:30;;;;;;;7.67;5.40;;;4.40;99.90;;;;;;5090113;28;20081;-74
2021/05/08 05:47:58;;;;;;;6.47;4.47;;;4.60;99.90;;;;;;5073236;28;20032;-74
2021/05/08 05:50:24;;;;;;;13.03;6.37;;;4.80;99.90;;;;;;5071720;28;20818;-78
2021/05/08 05:52:50;;;;;;;5.63;4.70;;;5.00;99.90;;;;;;5090591;28;20039;-78
2021/05/08 05:55:16;;;;;;;7.47;5.00;;;5.10;99.90;;;;;;5058537;28;20385;-78
2021/05/08 05:57:41;;;;;;;7.57;5.00;;;5.30;99.90;;;;;;5072750;28;20069;-78
2021/05/08 06:00:07;;;;;;;6.73;4.20;;;5.40;99.90;;;;;;5084282;28;20028;-78
2021/05/08 06:02:35;;;;;;;4.90;3.87;;;5.60;99.90;;;;;;5082906;28;20044;-78
2021/05/08 06:05:01;;;;;;;4.93;3.50;;;5.80;99.90;;;;;;5076640;28;20036;-78
2021/05/08 06:07:26;;;;;;;5.97;3.73;;;6.00;99.90;;;;;;5068238;28;20685;-78
2021/05/08 06:09:52;;;;;;;5.53;3.30;;;6.20;99.90;;;;;;5081255;28;20349;-78
2021/05/08 06:12:17;;;;;;;4.87;3.53;;;6.30;99.90;;;;;;5079595;28;20769;-78
2021/05/08 06:14:43;;;;;;;6.23;3.70;;;6.50;99.90;;;;;;5083804;28;20456;-78
2021/05/08 06:17:09;;;;;;;10.33;3.30;;;6.60;99.90;;;;;;5075899;28;20506;-78
2021/05/08 06:19:34;;;;;;;8.20;4.07;;;6.70;99.90;;;;;;5081887;28;20028;-78
2021/05/08 06:22:00;;;;;;;8.57;4.23;;;6.80;99.90;;;;;;5085007;28;20028;-79
2021/05/08 06:24:25;;;;;;;8.23;3.67;;;6.90;99.90;;;;;;5082618;28;20051;-78
2021/05/08 06:26:51;;;;;;;4.77;3.23;;;7.10;99.90;;;;;;5082369;28;20059;-79
2021/05/08 06:29:16;;;;;;;8.73;4.40;;;7.20;99.90;;;;;;5084072;28;20059;-79
2021/05/08 06:31:42;;;;;;;5.23;3.47;;;7.30;99.90;;;;;;5085962;28;20043;-79
2021/05/08 06:34:07;;;;;;;6.27;3.77;;;7.50;99.90;;;;;;5086847;28;20493;-79
2021/05/08 06:36:33;;;;;;;4.47;3.67;;;7.70;99.90;;;;;;5081068;28;20035;-79
2021/05/08 06:38:59;;;;;;;9.53;4.10;;;8.00;99.90;;;;;;5082532;28;20094;-78
2021/05/08 06:41:24;;;;;;;7.57;4.00;;;8.10;99.90;;;;;;5088221;28;20028;-86
2021/05/08 06:43:50;;;;;;;4.43;3.60;;;8.20;99.90;;;;;;5093499;28;20036;-86
2021/05/08 06:46:16;;;;;;;6.87;4.40;;;8.30;99.90;;;;;;5068330;28;20048;-68
2021/05/08 06:48:41;;;;;;;9.37;4.00;;;8.40;99.90;;;;;;5069813;28;20039;-68
2021/05/08 06:51:08;;;;;;;10.73;3.30;;;8.50;99.90;;;;;;5089568;28;20468;-85
2021/05/08 06:53:35;;;;;;;4.67;3.00;;;8.60;99.90;;;;;;5085945;28;20085;-85
2021/05/08 06:56:01;;;;;;;9.23;3.63;;;8.70;99.90;;;;;;5087197;28;20017;-73
2021/05/08 06:58:27;;;;;;;8.17;4.10;;;8.90;99.90;;;;;;5080515;28;20034;-74
2021/05/08 07:00:52;;;;;;;6.30;3.67;;;9.00;99.90;;;;;;5089178;28;20016;-74
2021/05/08 07:03:22;;;;;;;5.13;3.13;;;9.10;99.90;;;;;;5068785;28;20093;-74
2021/05/08 07:05:48;;;;;;;7.30;3.50;;;9.10;99.90;;;;;;5078031;28;20040;-74
2021/05/08 07:08:14;;;;;;;5.07;3.23;;;9.20;99.90;;;;;;5077921;28;20103;-74
2021/05/08 07:10:50;;;;;;;6.63;3.37;;;9.30;99.90;;;;;;5089512;28;20086;-74
2021/05/08 07:13:16;;;;;;;5.47;3.07;;;9.50;99.90;;;;;;5093364;28;20123;-74
2021/05/08 07:15:41;;;;;;;5.00;3.27;;;9.50;99.90;;;;;;5092252;28;20024;-74
2021/05/08 07:18:08;;;;;;;6.73;3.30;;;9.60;99.90;;;;;;5081467;28;20376;-74
2021/05/08 07:20:35;;;;;;;6.37;3.20;;;9.60;99.90;;;;;;5093551;28;20039;-75
2021/05/08 07:23:02;;;;;;;9.23;3.47;;;9.70;99.90;;;;;;5093168;28;20032;-74
2021/05/08 07:25:28;;;;;;;5.73;3.83;;;9.80;99.90;;;;;;5093453;28;20142;-74
2021/05/08 07:28:07;;;;;;;4.67;3.10;;;9.90;99.90;;;;;;5071138;28;20086;-74
2021/05/08 07:30:32;;;;;;;4.90;3.40;;;10.00;99.90;;;;;;5074529;28;20395;-74
2021/05/08 07:32:58;;;;;;;5.23;3.63;;;10.10;99.90;;;;;;5082478;28;20040;-74
2021/05/08 07:35:23;;;;;;;7.03;2.77;;;10.20;99.90;;;;;;5086184;28;20121;-74
2021/05/08 07:37:50;;;;;;;7.80;3.13;;;10.30;99.90;;;;;;5084753;28;20042;-74
2021/05/08 07:40:15;;;;;;;5.83;3.10;;;10.40;99.90;;;;;;5069362;28;20036;-74
2021/05/08 07:42:41;;;;;;;4.33;2.33;;;10.50;99.90;;;;;;5072983;28;20330;-74
2021/05/08 07:45:07;;;;;;;8.53;3.67;;;10.50;99.90;;;;;;5068587;28;20059;-74
2021/05/08 07:47:33;;;;;;;5.97;2.70;;;10.60;99.90;;;;;;5051754;28;20078;-74
2021/05/08 07:49:58;;;;;;;4.68;2.50;;;10.70;99.90;;;;;;5080737;28;20488;-74
2021/05/08 07:52:24;;;;;;;4.50;2.40;;;10.70;99.90;;;;;;5087119;28;20063;-75
2021/05/08 07:54:49;;;;;;;7.00;2.87;;;10.80;99.90;;;;;;5073414;28;20029;-75
2021/05/08 07:57:15;;;;;;;6.87;2.30;;;10.80;99.90;;;;;;5083973;28;20054;-74
2021/05/08 07:59:40;;;;;;;4.43;2.47;;;10.80;99.90;;;;;;5080515;28;20492;-75
2021/05/08 08:02:06;;;;;;;3.73;2.40;;;11.00;99.90;;;;;;5080580;28;20077;-75
2021/05/08 08:04:31;;;;;;;3.47;2.40;;;11.10;99.90;;;;;;5070517;28;20098;-74
2021/05/08 08:06:57;;;;;;;6.93;3.30;;;11.20;99.90;;;;;;5073639;28;20051;-74
2021/05/08 08:09:22;;;;;;;5.30;2.42;;;11.30;99.90;;;;;;5086550;28;20121;-74
2021/05/08 08:11:49;;;;;;;3.78;2.40;;;11.40;99.90;;;;;;5089218;28;20119;-74
2021/05/08 08:14:14;;;;;;;3.20;2.13;;;11.50;99.90;;;;;;5083855;28;20035;-74
2021/05/08 08:16:40;;;;;;;5.50;2.53;;;11.50;99.90;;;;;;5086412;28;20025;-74
2021/05/08 08:19:05;;;;;;;11.05;2.97;;;11.50;99.90;;;;;;5082488;28;20036;-74
2021/05/08 08:21:31;;;;;;;5.75;2.20;;;11.60;99.90;;;;;;5088280;28;20020;-74
2021/05/08 08:23:56;;;;;;;4.20;2.58;;;11.60;99.90;;;;;;5083760;28;20354;-75
2021/05/08 08:26:23;;;;;;;3.75;2.10;;;11.60;99.90;;;;;;5088755;28;20101;-75
2021/05/08 08:28:48;;;;;;;10.05;2.30;;;11.70;99.90;;;;;;5084947;28;20024;-91
2021/05/08 08:31:14;;;;;;;4.00;1.98;;;11.80;99.90;;;;;;5089921;28;20036;-92
2021/05/08 08:33:39;;;;;;;5.63;2.42;;;11.90;99.90;;;;;;5084887;28;20032;-91
2021/05/08 08:36:05;;;;;;;3.65;1.98;;;11.90;99.90;;;;;;5089949;28;20020;-91
2021/05/08 08:38:30;;;;;;;4.70;2.08;;;11.90;99.90;;;;;;5079467;28;20017;-92
2021/05/08 08:40:56;;;;;;;3.72;2.05;;;11.90;99.90;;;;;;5098828;28;20020;-91
2021/05/08 08:43:23;;;;;;;3.42;2.03;;;12.00;99.90;;;;;;5067360;28;20029;-91
2021/05/08 08:45:49;;;;;;;4.25;1.90;;;12.00;99.00;;;;;;5097906;28;20023;-78
2021/05/08 08:48:14;;;;;;;3.53;2.10;;;12.00;99.90;;;;;;5084901;28;20040;-77
2021/05/08 08:50:40;;;;;;;3.72;2.13;;;12.10;99.90;;;;;;5088565;28;20085;-77
2021/05/08 08:53:09;;;;;;;5.00;1.95;;;12.20;99.30;;;;;;5088750;28;20035;-77
2021/05/08 08:55:35;;;;;;;6.65;2.53;;;12.30;96.90;;;;;;5085589;28;20027;-76
2021/05/08 08:58:05;;;;;;;4.30;2.45;;;12.30;95.70;;;;;;5083319;28;20073;-77
2021/05/08 09:00:30;;;;;;;8.90;2.65;;;12.30;95.80;;;;;;5079248;28;20025;-77
2021/05/08 09:02:56;;;;;;;5.55;2.03;;;12.30;94.80;;;;;;5087601;28;20308;-77
2021/05/08 09:05:24;;;;;;;3.97;2.08;;;12.20;95.50;;;;;;5091340;28;20097;-78
2021/05/08 09:07:51;;;;;;;6.05;2.92;;;12.30;97.90;;;;;;5080928;28;20091;-78
2021/05/08 09:10:25;;;;;;;5.25;2.45;;;12.40;95.30;;;;;;5091278;28;20701;-77
2021/05/08 09:12:52;;;;;;;2.95;1.98;;;12.50;97.40;;;;;;5073327;28;20035;-77
2021/05/08 09:15:40;;;;;;;3.15;1.88;;;12.70;94.80;;;;;;5062772;28;20392;-77
2021/05/08 09:18:07;;;;;;;4.50;2.00;;;12.80;98.60;;;;;;5090331;28;20020;-89
2021/05/08 09:21:02;;;;;;;14.48;4.45;;;12.80;94.20;;;;;;5087798;28;20039;-89
2021/05/08 09:23:34;;;;;;;4.03;2.60;;;12.90;96.60;;;;;;5080557;28;20533;-83
2021/05/08 09:26:11;;;;;;;2.75;1.65;;;13.00;94.90;;;;;;5069036;28;20286;-86
2021/05/08 09:28:39;;;;;;;3.03;2.05;;;13.20;97.30;;;;;;5082174;28;20027;-85
2021/05/08 09:31:06;;;;;;;3.60;2.20;;;13.30;95.20;;;;;;5085811;28;20176;-79
2021/05/08 09:33:33;;;;;;;4.93;1.73;;;13.60;95.80;;;;;;5088460;28;20024;-79
2021/05/08 09:36:10;;;;;;;2.53;1.73;;;13.80;94.30;;;;;;5088580;28;20085;-78
2021/05/08 09:38:42;;;;;;;4.20;2.08;;;14.00;95.20;;;;;;5078314;28;20016;-78
2021/05/08 09:41:13;;;;;;;2.75;1.77;;;14.20;93.30;;;;;;5069990;28;20023;-78
2021/05/08 09:43:39;;;;;;;3.75;1.60;;;14.30;91.10;;;;;;5070068;28;20419;-78
2021/05/08 09:46:06;;;;;;;2.75;1.75;;;14.30;87.80;;;;;;5088485;28;20039;-78
2021/05/08 09:48:36;;;;;;;4.13;2.05;;;14.50;85.40;;;;;;5084268;28;20040;-78
2021/05/08 09:51:29;;;;;;;1.50;1.25;;;14.50;88.30;;;;;;5088263;28;20097;-79
2021/05/08 09:54:15;;;;;;;2.45;1.40;;;15.00;88.80;;;;;;5085248;28;20106;-79
2021/05/08 09:56:43;;;;;;;4.07;1.80;;;15.10;82.60;;;;;;5060537;28;20032;-78
2021/05/08 09:59:40;;;;;;;3.50;1.55;;;15.30;85.40;;;;;;5072752;28;20031;-78
2021/05/08 10:02:06;;;;;;;3.13;1.33;;;15.60;82.10;;;;;;5076722;28;20115;-74
2021/05/08 10:04:46;;;;;;;2.10;1.20;;;15.80;79.00;;;;;;5074541;28;20544;-74
2021/05/08 10:07:15;;;;;;;2.08;1.30;;;15.80;81.90;;;;;;5065518;28;20112;-74
2021/05/08 10:09:43;;;;;;;3.10;1.60;;;16.00;83.80;;;;;;5079985;28;20426;-75
2021/05/08 10:12:14;;;;;;;3.70;1.50;;;16.20;80.50;;;;;;5075176;28;20445;-75
2021/05/08 10:14:42;;;;;;;3.88;1.50;;;16.40;85.00;;;;;;5058606;28;20112;-74
2021/05/08 10:17:10;;;;;;;1.85;1.40;;;16.60;81.80;;;;;;5070994;28;20094;-74
2021/05/08 10:19:38;;;;;;;1.63;1.20;;;16.60;74.50;;;;;;5077366;28;20073;-74
2021/05/08 10:22:07;;;;;;;3.05;1.35;;;16.70;77.40;;;;;;5077507;28;20028;-75
2021/05/08 10:24:35;;;;;;;2.03;1.48;;;16.80;72.10;;;;;;5076749;28;20122;-74
2021/05/08 10:27:01;;;;;;;2.97;1.50;;;16.70;75.80;;;;;;5075824;28;20048;-74
2021/05/08 10:29:31;;;;;;;4.00;1.58;;;17.00;74.30;;;;;;5068183;28;20029;-74
2021/05/08 10:32:00;;;;;;;1.98;1.30;;;17.20;71.30;;;;;;5087875;28;20028;-75
2021/05/08 10:34:35;;;;;;;2.17;1.20;;;17.30;70.00;;;;;;5087958;28;20032;-75
2021/05/08 10:37:11;;;;;;;2.88;1.20;;;17.20;71.20;;;;;;5086743;28;20021;-75
2021/05/08 10:39:56;;;;;;;2.03;1.30;;;17.20;70.30;;;;;;5078097;28;20028;-74
2021/05/08 10:42:30;;;;;;;3.23;1.70;;;17.40;66.80;;;;;;5074101;28;20024;-74
2021/05/08 10:44:57;;;;;;;1.83;1.25;;;17.60;69.50;;;;;;5076344;28;20491;-75
2021/05/08 10:47:23;;;;;;;2.40;1.25;;;17.60;68.20;;;;;;5067251;28;20039;-74
2021/05/08 10:50:24;;;;;;;1.02;0.98;;;17.90;66.10;;;;;;5088210;28;20028;-74
2021/05/08 10:53:01;;;;;;;2.58;1.30;;;18.00;70.90;;;;;;5075588;28;20046;-74
2021/05/08 10:55:30;;;;;;;2.38;1.90;;;18.10;69.30;;;;;;5074080;28;20109;-75
2021/05/08 10:58:20;;;;;;;1.35;1.10;;;18.10;66.60;;;;;;5092625;28;20020;-86
2021/05/08 11:00:56;;;;;;;2.72;1.40;;;18.20;63.70;;;;;;5083229;28;20055;-85
2021/05/08 11:03:29;;;;;;;2.17;1.20;;;18.40;64.70;;;;;;5092740;28;20380;-86
2021/05/08 11:06:15;;;;;;;4.07;1.10;;;18.50;62.70;;;;;;5077810;28;20032;-85
2021/05/08 11:08:45;;;;;;;1.98;1.10;;;18.50;65.70;;;;;;5080657;28;20481;-86
2021/05/08 11:11:14;;;;;;;3.90;1.23;;;18.80;63.60;;;;;;5088487;28;20867;-86
2021/05/08 11:13:42;;;;;;;1.98;1.17;;;19.00;61.30;;;;;;5092738;28;20055;-86
2021/05/08 11:16:13;;;;;;;3.47;1.30;;;18.80;60.30;;;;;;5092242;28;20805;-85
2021/05/08 11:18:41;;;;;;;4.45;2.60;;;18.80;61.20;;;;;;5080868;28;20024;-86
2021/05/08 11:21:15;;;;;;;2.40;1.00;;;18.70;57.80;;;;;;5091316;28;20420;-86
2021/05/08 11:23:47;;;;;;;2.20;1.10;;;18.60;58.30;;;;;;5065827;28;20028;-86
2021/05/08 11:26:31;;;;;;;1.30;1.00;;;18.60;60.20;;;;;;5075829;28;20393;-86
2021/05/08 11:28:57;;;;;;;1.92;1.30;;;18.70;59.70;;;;;;5064498;28;20028;-86
2021/05/08 11:31:33;;;;;;;2.08;1.05;;;18.80;61.50;;;;;;5086584;28;20028;-86
2021/05/08 11:34:17;;;;;;;2.65;1.17;;;19.00;59.40;;;;;;5055315;28;20032;-86
2021/05/08 11:36:54;;;;;;;1.50;1.23;;;19.00;58.80;;;;;;5084798;28;20047;-85
2021/05/08 11:39:32;;;;;;;1.67;1.40;;;19.10;58.80;;;;;;5077309;28;20028;-85
2021/05/08 11:42:17;;;;;;;1.90;1.27;;;19.20;57.30;;;;;;5085691;28;20016;-86
2021/05/08 11:44:45;;;;;;;3.17;1.10;;;19.20;57.80;;;;;;5079359;28;20032;-85
2021/05/08 11:50:13;;;;;;;2.45;1.30;;;19.10;59.80;;;;;;5070373;28;20073;-79
2021/05/08 11:52:48;;;;;;;2.22;1.10;;;19.30;60.60;;;;;;5077623;28;20020;-79
2021/05/08 11:55:13;;;;;;;2.13;1.00;;;19.50;56.20;;;;;;5071158;28;20021;-79
2021/05/08 11:57:43;;;;;;;1.52;1.00;;;19.50;58.70;;;;;;5056880;28;20793;-79
2021/05/08 12:00:16;;;;;;;1.17;1.00;;;19.80;58.80;;;;;;5072171;28;20073;-79
2021/05/08 12:02:41;;;;;;;2.65;1.27;;;19.70;59.60;;;;;;5084734;28;20024;-79
2021/05/08 12:05:08;;;;;;;1.60;1.00;;;19.60;59.60;;;;;;5057420;28;20032;-79
2021/05/08 12:07:44;;;;;;;3.72;1.40;;;19.70;58.80;;;;;;5078628;28;20028;-79
2021/05/08 12:10:14;;;;;;;3.22;1.08;;;20.10;57.10;;;;;;5080823;28;20040;-79
2021/05/08 12:12:55;;;;;;;2.10;1.50;;;20.20;56.70;;;;;;5074464;28;20040;-78
2021/05/08 12:15:29;;;;;;;1.95;1.00;;;20.50;57.10;;;;;;5081593;28;20113;-79
2021/05/08 12:17:57;;;;;;;3.00;1.33;;;20.20;55.70;;;;;;5076404;28;20020;-79
2021/05/08 12:20:27;;;;;;;1.67;0.95;;;20.30;53.50;;;;;;5081951;28;20071;-86
2021/05/08 12:23:01;;;;;;;3.20;1.50;;;20.10;55.20;;;;;;5073955;28;20484;-80
2021/05/08 12:25:28;;;;;;;1.67;1.08;;;19.90;59.30;;;;;;5075439;28;20036;-86
2021/05/08 12:28:16;;;;;;;41.22;4.93;;;20.00;58.20;;;;;;5077013;28;20059;-86
2021/05/08 12:30:43;;;;;;;1.25;0.93;;;20.30;57.70;;;;;;5063770;28;20058;-86
2021/05/08 12:33:20;;;;;;;2.13;1.52;;;20.40;56.30;;;;;;5076546;28;20054;-86
2021/05/08 12:35:47;;;;;;;3.45;1.30;;;20.30;55.20;;;;;;5062548;28;20046;-86
2021/05/08 12:38:16;;;;;;;2.50;1.10;;;20.30;57.60;;;;;;5079232;28;20082;-80
2021/05/08 12:40:41;;;;;;;1.10;1.00;;;20.50;55.60;;;;;;5075434;28;20021;-79
2021/05/08 12:43:07;;;;;;;1.70;1.30;;;20.50;54.50;;;;;;5074582;28;20550;-79
2021/05/08 12:45:32;;;;;;;1.90;1.20;;;20.30;55.90;;;;;;5076402;28;20110;-86
2021/05/08 12:47:58;;;;;;;3.50;1.30;;;20.20;55.60;;;;;;5073744;28;20447;-87
2021/05/08 12:50:32;;;;;;;3.75;1.10;;;20.00;57.40;;;;;;5077373;28;20051;-87
2021/05/08 12:53:01;;;;;;;2.30;1.00;;;20.10;56.80;;;;;;5059222;28;20381;-86
2021/05/08 12:55:37;;;;;;;2.65;1.27;;;20.20;56.70;;;;;;5080018;28;20025;-86
2021/05/08 12:58:09;;;;;;;1.98;1.23;;;20.40;57.20;;;;;;5069911;28;20097;-72